createdAt,value
2018-01-21T00:00:36.767Z,0
2018-01-21T00:01:17.290Z,0
2018-01-21T00:01:57.904Z,0
2018-01-21T00:02:38.414Z,0
2018-01-21T00:03:18.959Z,0
2018-01-21T00:03:59.550Z,0
2018-01-21T00:04:40.005Z,0
2018-01-21T00:05:20.556Z,0
2018-01-21T00:06:01.093Z,0
2018-01-21T00:06:41.746Z,0
2018-01-21T00:07:22.301Z,0
2018-01-21T00:08:03.128Z,0
2018-01-21T00:08:43.693Z,0
2018-01-21T00:09:24.240Z,0
2018-01-21T00:10:04.743Z,0
2018-01-21T00:10:45.283Z,0
2018-01-21T00:11:25.846Z,0
2018-01-21T00:12:06.394Z,0
2018-01-21T00:12:46.944Z,0
2018-01-21T00:13:27.484Z,0
2018-01-21T00:14:08.021Z,0
2018-01-21T00:14:48.579Z,0
2018-01-21T00:15:29.129Z,0
2018-01-21T00:16:09.673Z,0
2018-01-21T00:16:50.265Z,0
2018-01-21T00:17:30.801Z,0
2018-01-21T00:18:11.435Z,0
2018-01-21T00:18:51.983Z,0
2018-01-21T00:19:32.543Z,0
2018-01-21T00:20:13.084Z,0
2018-01-21T00:20:53.682Z,0
2018-01-21T00:21:34.163Z,0
2018-01-21T00:22:14.777Z,0
2018-01-21T00:22:55.316Z,0
2018-01-21T00:23:35.831Z,0
2018-01-21T00:24:16.337Z,0
2018-01-21T00:24:56.896Z,0
2018-01-21T00:25:37.460Z,0
2018-01-21T00:26:18.190Z,0
2018-01-21T00:26:58.810Z,0
2018-01-21T00:27:39.378Z,0
2018-01-21T00:28:19.843Z,0
2018-01-21T00:29:00.467Z,0
2018-01-21T00:29:40.926Z,0
2018-01-21T00:30:21.589Z,0
2018-01-21T00:31:02.151Z,0
2018-01-21T00:31:42.676Z,0
2018-01-21T00:32:23.308Z,0
2018-01-21T00:33:03.880Z,0
2018-01-21T00:33:44.483Z,0
2018-01-21T00:34:25.061Z,0
2018-01-21T00:35:05.549Z,0
2018-01-21T00:35:46.107Z,0
2018-01-21T00:36:26.621Z,0
2018-01-21T00:37:07.265Z,0
2018-01-21T00:37:47.699Z,0
2018-01-21T00:38:28.285Z,0
2018-01-21T00:39:08.918Z,0
2018-01-21T00:39:49.486Z,0
2018-01-21T00:40:30.037Z,0
2018-01-21T00:41:10.534Z,0
2018-01-21T00:41:51.055Z,0
2018-01-21T00:42:31.655Z,0
2018-01-21T00:43:12.221Z,0
2018-01-21T00:43:52.752Z,0
2018-01-21T00:44:33.268Z,0
2018-01-21T00:45:13.857Z,0
2018-01-21T00:45:54.396Z,0
2018-01-21T00:46:34.919Z,0
2018-01-21T00:47:15.503Z,0
2018-01-21T00:47:56.006Z,0
2018-01-21T00:48:36.527Z,0
2018-01-21T00:49:17.118Z,0
2018-01-21T00:49:57.595Z,0
2018-01-21T00:50:38.163Z,0
2018-01-21T00:52:59.454Z,0
2018-01-21T00:53:40.031Z,0
2018-01-21T00:54:20.561Z,0
2018-01-21T00:55:01.101Z,0
2018-01-21T00:55:41.660Z,0
2018-01-21T00:56:22.178Z,0
2018-01-21T00:57:02.755Z,0
2018-01-21T00:57:43.312Z,0
2018-01-21T00:58:23.857Z,0
2018-01-21T00:59:04.371Z,0
2018-01-21T00:59:44.895Z,0
2018-01-21T01:00:25.441Z,0
2018-01-21T01:01:06.005Z,0
2018-01-21T01:01:46.541Z,0
2018-01-21T01:02:27.064Z,0
2018-01-21T01:03:07.616Z,0
2018-01-21T01:03:48.168Z,0
2018-01-21T01:04:28.682Z,0
2018-01-21T01:05:09.264Z,0
2018-01-21T01:05:49.781Z,0
2018-01-21T01:06:30.488Z,0
2018-01-21T01:07:10.885Z,0
2018-01-21T01:07:51.506Z,0
2018-01-21T01:08:31.970Z,0
2018-01-21T01:09:12.506Z,0
2018-01-21T01:09:53.025Z,0
2018-01-21T01:10:33.575Z,0
2018-01-21T01:11:14.125Z,0
2018-01-21T01:11:54.670Z,0
2018-01-21T01:12:35.158Z,0
2018-01-21T01:13:15.719Z,0
2018-01-21T01:13:56.257Z,0
2018-01-21T01:14:36.757Z,0
2018-01-21T01:15:17.292Z,0
2018-01-21T01:15:57.909Z,0
2018-01-21T01:16:38.367Z,0
2018-01-21T01:17:18.907Z,0
2018-01-21T01:17:59.460Z,0
2018-01-21T01:18:40.072Z,0
2018-01-21T01:19:20.619Z,0
2018-01-21T01:20:01.109Z,0
2018-01-21T01:20:41.649Z,0
2018-01-21T01:21:24.142Z,0
2018-01-21T01:22:04.666Z,0
2018-01-21T01:22:45.251Z,0
2018-01-21T01:23:25.763Z,0
2018-01-21T01:24:06.278Z,0
2018-01-21T01:24:46.802Z,0
2018-01-21T01:25:27.332Z,0
2018-01-21T01:26:07.908Z,0
2018-01-21T01:26:48.493Z,0
2018-01-21T01:27:28.992Z,0
2018-01-21T01:28:09.548Z,0
2018-01-21T01:28:50.083Z,0
2018-01-21T01:29:30.619Z,0
2018-01-21T01:30:11.186Z,0
2018-01-21T01:30:51.724Z,0
2018-01-21T01:31:32.274Z,0
2018-01-21T01:32:12.872Z,0
2018-01-21T01:32:53.451Z,0
2018-01-21T01:33:34.013Z,0
2018-01-21T01:34:14.577Z,0
2018-01-21T01:34:55.084Z,0
2018-01-21T01:35:35.655Z,0
2018-01-21T01:36:16.193Z,0
2018-01-21T01:36:56.716Z,0
2018-01-21T01:37:37.283Z,0
2018-01-21T01:38:17.797Z,0
2018-01-21T01:38:58.334Z,0
2018-01-21T01:39:38.839Z,0
2018-01-21T01:40:19.358Z,0
2018-01-21T01:40:59.963Z,0
2018-01-21T01:41:40.454Z,0
2018-01-21T01:42:21.009Z,0
2018-01-21T01:43:01.607Z,0
2018-01-21T01:43:42.143Z,0
2018-01-21T01:44:22.680Z,0
2018-01-21T01:45:03.204Z,0
2018-01-21T01:45:43.694Z,0
2018-01-21T01:46:24.288Z,0
2018-01-21T01:47:04.749Z,0
2018-01-21T01:47:45.294Z,0
2018-01-21T01:48:25.859Z,0
2018-01-21T01:49:06.411Z,0
2018-01-21T01:49:46.930Z,0
2018-01-21T01:50:27.425Z,0
2018-01-21T01:51:07.959Z,0
2018-01-21T01:51:48.549Z,0
2018-01-21T01:52:29.085Z,0
2018-01-21T01:53:09.619Z,0
2018-01-21T01:53:50.119Z,0
2018-01-21T01:54:30.675Z,0
2018-01-21T01:55:11.210Z,0
2018-01-21T01:55:51.774Z,0
2018-01-21T01:56:32.291Z,0
2018-01-21T01:57:12.880Z,0
2018-01-21T01:57:53.405Z,0
2018-01-21T01:58:33.923Z,0
2018-01-21T01:59:14.464Z,0
2018-01-21T01:59:55.049Z,0
2018-01-21T02:00:35.571Z,0
2018-01-21T02:01:16.090Z,0
2018-01-21T02:01:56.658Z,0
2018-01-21T02:02:37.200Z,0
2018-01-21T02:03:18.610Z,0
2018-01-21T02:03:58.802Z,0
2018-01-21T02:04:39.272Z,0
2018-01-21T02:05:19.806Z,0
2018-01-21T02:06:00.428Z,0
2018-01-21T02:06:40.971Z,0
2018-01-21T02:07:21.546Z,0
2018-01-21T02:08:02.064Z,0
2018-01-21T02:08:42.501Z,0
2018-01-21T02:09:23.100Z,0
2018-01-21T02:10:03.574Z,0
2018-01-21T02:10:44.121Z,0
2018-01-21T02:11:24.703Z,0
2018-01-21T02:12:05.224Z,0
2018-01-21T02:12:45.753Z,0
2018-01-21T02:13:26.307Z,0
2018-01-21T02:14:06.832Z,0
2018-01-21T02:14:47.386Z,0
2018-01-21T02:15:27.903Z,0
2018-01-21T02:16:08.562Z,0
2018-01-21T02:16:49.110Z,0
2018-01-21T02:17:29.630Z,0
2018-01-21T02:18:10.180Z,0
2018-01-21T02:18:50.737Z,0
2018-01-21T02:19:31.337Z,0
2018-01-21T02:20:11.851Z,0
2018-01-21T02:20:52.328Z,0
2018-01-21T02:21:32.859Z,0
2018-01-21T02:22:13.462Z,0
2018-01-21T02:22:53.945Z,0
2018-01-21T02:23:34.517Z,0
2018-01-21T02:24:15.047Z,0
2018-01-21T02:24:55.633Z,0
2018-01-21T02:25:36.227Z,0
2018-01-21T02:26:16.778Z,0
2018-01-21T02:26:57.397Z,0
2018-01-21T02:27:37.954Z,0
2018-01-21T02:28:18.472Z,0
2018-01-21T02:28:59.009Z,0
2018-01-21T02:29:39.547Z,0
2018-01-21T02:30:20.119Z,0
2018-01-21T02:31:00.564Z,0
2018-01-21T02:31:41.107Z,0
2018-01-21T02:32:21.682Z,0
2018-01-21T02:33:02.238Z,0
2018-01-21T02:33:42.727Z,0
2018-01-21T02:34:23.318Z,0
2018-01-21T02:35:03.843Z,0
2018-01-21T02:35:44.428Z,0
2018-01-21T02:36:25.027Z,0
2018-01-21T02:37:05.552Z,0
2018-01-21T02:37:46.100Z,0
2018-01-21T02:38:26.625Z,0
2018-01-21T02:39:07.148Z,0
2018-01-21T02:39:47.717Z,0
2018-01-21T02:40:28.182Z,0
2018-01-21T02:41:08.691Z,0
2018-01-21T02:41:49.240Z,0
2018-01-21T02:42:29.770Z,0
2018-01-21T02:43:10.385Z,0
2018-01-21T02:43:50.875Z,0
2018-01-21T02:44:31.435Z,0
2018-01-21T02:45:11.954Z,0
2018-01-21T02:45:52.476Z,0
2018-01-21T02:46:32.990Z,0
2018-01-21T02:47:13.556Z,0
2018-01-21T02:47:54.059Z,0
2018-01-21T02:48:34.553Z,0
2018-01-21T02:49:15.117Z,0
2018-01-21T02:49:55.643Z,0
2018-01-21T02:50:36.175Z,0
2018-01-21T02:51:16.734Z,0
2018-01-21T02:51:57.263Z,0
2018-01-21T02:52:37.787Z,0
2018-01-21T02:53:19.089Z,0
2018-01-21T02:53:58.875Z,0
2018-01-21T02:54:39.465Z,0
2018-01-21T02:55:20.040Z,0
2018-01-21T02:56:00.555Z,0
2018-01-21T02:56:41.100Z,0
2018-01-21T02:57:21.672Z,0
2018-01-21T02:58:02.113Z,0
2018-01-21T02:58:42.667Z,0
2018-01-21T02:59:23.203Z,0
2018-01-21T03:00:03.716Z,0
2018-01-21T03:00:44.247Z,0
2018-01-21T03:01:24.755Z,0
2018-01-21T03:02:05.291Z,0
2018-01-21T03:02:45.828Z,0
2018-01-21T03:03:26.396Z,0
2018-01-21T03:04:06.902Z,0
2018-01-21T03:04:47.439Z,0
2018-01-21T03:05:28.060Z,0
2018-01-21T03:06:08.498Z,0
2018-01-21T03:06:49.032Z,0
2018-01-21T03:07:29.547Z,0
2018-01-21T03:08:10.089Z,0
2018-01-21T03:08:50.636Z,0
2018-01-21T03:09:31.138Z,0
2018-01-21T03:10:11.672Z,0
2018-01-21T03:10:52.219Z,0
2018-01-21T03:11:32.698Z,0
2018-01-21T03:12:13.277Z,0
2018-01-21T03:12:53.776Z,0
2018-01-21T03:13:34.383Z,0
2018-01-21T03:14:14.845Z,0
2018-01-21T03:14:55.561Z,0
2018-01-21T03:15:36.044Z,0
2018-01-21T03:16:16.616Z,0
2018-01-21T03:16:57.096Z,0
2018-01-21T03:17:37.669Z,0
2018-01-21T03:18:18.216Z,0
2018-01-21T03:18:58.782Z,0
2018-01-21T03:19:39.344Z,0
2018-01-21T03:20:19.956Z,0
2018-01-21T03:21:00.360Z,0
2018-01-21T03:21:40.883Z,0
2018-01-21T03:22:21.452Z,0
2018-01-21T03:23:02.001Z,0
2018-01-21T03:23:42.467Z,0
2018-01-21T03:24:23.010Z,0
2018-01-21T03:25:03.583Z,0
2018-01-21T03:25:44.112Z,0
2018-01-21T03:26:24.657Z,0
2018-01-21T03:27:05.219Z,0
2018-01-21T03:27:45.769Z,0
2018-01-21T03:28:26.338Z,0
2018-01-21T03:29:06.839Z,0
2018-01-21T03:29:47.410Z,0
2018-01-21T03:30:27.950Z,0
2018-01-21T03:31:08.520Z,0
2018-01-21T03:31:49.030Z,0
2018-01-21T03:32:29.610Z,0
2018-01-21T03:33:10.155Z,0
2018-01-21T03:33:50.685Z,0
2018-01-21T03:34:31.223Z,0
2018-01-21T03:35:11.764Z,0
2018-01-21T03:35:52.289Z,0
2018-01-21T03:36:32.844Z,0
2018-01-21T03:37:13.409Z,0
2018-01-21T03:37:53.940Z,0
2018-01-21T03:38:34.481Z,0
2018-01-21T03:39:15.069Z,0
2018-01-21T03:39:55.602Z,0
2018-01-21T03:40:36.087Z,0
2018-01-21T03:41:16.645Z,0
2018-01-21T03:41:57.166Z,0
2018-01-21T03:42:37.756Z,0
2018-01-21T03:43:18.231Z,0
2018-01-21T03:43:58.752Z,0
2018-01-21T03:44:39.356Z,0
2018-01-21T03:45:19.869Z,0
2018-01-21T03:46:00.415Z,0
2018-01-21T03:46:40.967Z,0
2018-01-21T03:47:21.472Z,0
2018-01-21T03:48:02.127Z,0
2018-01-21T03:48:42.562Z,0
2018-01-21T03:49:23.067Z,0
2018-01-21T03:50:03.600Z,0
2018-01-21T03:50:44.135Z,0
2018-01-21T03:51:24.691Z,0
2018-01-21T03:52:05.350Z,0
2018-01-21T03:52:45.845Z,0
2018-01-21T03:53:26.370Z,0
2018-01-21T03:54:06.980Z,0
2018-01-21T03:54:47.495Z,0
2018-01-21T03:55:28.014Z,0
2018-01-21T03:56:08.497Z,0
2018-01-21T03:56:49.037Z,0
2018-01-21T03:57:29.581Z,0
2018-01-21T03:58:10.103Z,0
2018-01-21T03:58:50.662Z,0
2018-01-21T03:59:31.298Z,0
2018-01-21T04:00:11.781Z,0
2018-01-21T04:00:52.309Z,0
2018-01-21T04:01:32.829Z,0
2018-01-21T04:02:13.414Z,0
2018-01-21T04:02:53.901Z,0
2018-01-21T04:03:34.452Z,0
2018-01-21T04:04:14.985Z,0
2018-01-21T04:04:55.540Z,0
2018-01-21T04:05:36.028Z,0
2018-01-21T04:06:16.566Z,0
2018-01-21T04:06:57.085Z,0
2018-01-21T04:07:37.634Z,0
2018-01-21T04:08:18.142Z,0
2018-01-21T04:08:58.655Z,0
2018-01-21T04:09:39.169Z,0
2018-01-21T04:10:19.692Z,0
2018-01-21T04:11:00.233Z,0
2018-01-21T04:11:40.768Z,0
2018-01-21T04:12:21.280Z,0
2018-01-21T04:13:01.819Z,0
2018-01-21T04:13:42.303Z,0
2018-01-21T04:14:22.847Z,0
2018-01-21T04:15:03.387Z,0
2018-01-21T04:15:43.928Z,0
2018-01-21T04:16:25.310Z,0
2018-01-21T04:17:05.890Z,0
2018-01-21T04:17:46.397Z,0
2018-01-21T04:18:26.946Z,0
2018-01-21T04:19:07.464Z,0
2018-01-21T04:19:47.997Z,0
2018-01-21T04:20:28.536Z,0
2018-01-21T04:21:09.094Z,0
2018-01-21T04:21:49.632Z,0
2018-01-21T04:22:30.147Z,0
2018-01-21T04:23:10.719Z,0
2018-01-21T04:23:51.222Z,0
2018-01-21T04:24:31.788Z,0
2018-01-21T04:25:12.371Z,0
2018-01-21T04:25:52.842Z,0
2018-01-21T04:26:33.414Z,0
2018-01-21T04:27:13.958Z,0
2018-01-21T04:27:54.517Z,0
2018-01-21T04:28:35.047Z,0
2018-01-21T04:29:15.620Z,0
2018-01-21T04:29:56.176Z,0
2018-01-21T04:30:36.709Z,0
2018-01-21T04:31:17.248Z,0
2018-01-21T04:31:57.794Z,0
2018-01-21T04:32:38.328Z,0
2018-01-21T04:33:18.916Z,0
2018-01-21T04:33:59.441Z,0
2018-01-21T04:34:39.952Z,0
2018-01-21T04:35:20.514Z,0
2018-01-21T04:36:01.045Z,0
2018-01-21T04:36:41.602Z,0
2018-01-21T04:37:22.124Z,0
2018-01-21T04:38:02.710Z,0
2018-01-21T04:38:43.240Z,0
2018-01-21T04:39:23.762Z,0
2018-01-21T04:40:04.305Z,0
2018-01-21T04:40:44.817Z,0
2018-01-21T04:41:25.500Z,0
2018-01-21T04:42:06.034Z,0
2018-01-21T04:42:46.572Z,0
2018-01-21T04:43:27.139Z,0
2018-01-21T04:44:07.597Z,0
2018-01-21T04:44:48.192Z,0
2018-01-21T04:45:28.701Z,0
2018-01-21T04:46:09.256Z,0
2018-01-21T04:46:49.773Z,0
2018-01-21T04:47:30.305Z,0
2018-01-21T04:48:10.845Z,0
2018-01-21T04:48:51.350Z,0
2018-01-21T04:49:31.890Z,0
2018-01-21T04:50:12.489Z,0
2018-01-21T04:50:53.014Z,0
2018-01-21T04:51:33.556Z,0
2018-01-21T04:52:14.102Z,0
2018-01-21T04:52:54.641Z,0
2018-01-21T04:53:35.197Z,0
2018-01-21T04:54:15.715Z,0
2018-01-21T04:54:56.262Z,0
2018-01-21T04:55:36.819Z,0
2018-01-21T04:56:17.365Z,0
2018-01-21T04:56:57.896Z,0
2018-01-21T04:57:38.430Z,0
2018-01-21T04:58:18.967Z,0
2018-01-21T04:58:59.470Z,0
2018-01-21T04:59:39.988Z,0
2018-01-21T05:00:20.565Z,0
2018-01-21T05:01:01.073Z,0
2018-01-21T05:01:41.673Z,0
2018-01-21T05:02:22.173Z,0
2018-01-21T05:03:02.713Z,0
2018-01-21T05:03:43.213Z,0
2018-01-21T05:04:23.785Z,0
2018-01-21T05:05:04.232Z,0
2018-01-21T05:05:44.900Z,0
2018-01-21T05:06:25.372Z,0
2018-01-21T05:07:05.945Z,0
2018-01-21T05:07:46.455Z,0
2018-01-21T05:08:26.972Z,0
2018-01-21T05:09:07.528Z,0
2018-01-21T05:09:48.065Z,0
2018-01-21T05:10:28.604Z,0
2018-01-21T05:11:09.124Z,0
2018-01-21T05:11:49.667Z,0
2018-01-21T05:12:30.236Z,0
2018-01-21T05:13:10.787Z,0
2018-01-21T05:13:51.297Z,0
2018-01-21T05:14:31.834Z,0
2018-01-21T05:15:12.403Z,0
2018-01-21T05:15:52.919Z,0
2018-01-21T05:16:33.491Z,0
2018-01-21T05:17:14.033Z,0
2018-01-21T05:17:54.521Z,0
2018-01-21T05:18:35.140Z,0
2018-01-21T05:19:15.649Z,0
2018-01-21T05:19:56.262Z,0
2018-01-21T05:20:36.973Z,0
2018-01-21T05:21:17.545Z,0
2018-01-21T05:21:58.046Z,0
2018-01-21T05:22:38.631Z,0
2018-01-21T05:23:19.153Z,0
2018-01-21T05:23:59.711Z,0
2018-01-21T05:24:40.236Z,0
2018-01-21T05:25:20.792Z,0
2018-01-21T05:26:01.337Z,0
2018-01-21T05:26:41.849Z,0
2018-01-21T05:27:22.418Z,0
2018-01-21T05:28:02.975Z,0
2018-01-21T05:28:43.533Z,0
2018-01-21T05:29:24.077Z,0
2018-01-21T05:30:04.600Z,0
2018-01-21T05:30:45.124Z,0
2018-01-21T05:31:25.682Z,0
2018-01-21T05:32:06.229Z,0
2018-01-21T05:32:46.764Z,0
2018-01-21T05:33:27.291Z,0
2018-01-21T05:34:07.846Z,0
2018-01-21T05:34:48.416Z,0
2018-01-21T05:35:28.908Z,0
2018-01-21T05:36:09.436Z,0
2018-01-21T05:36:50.005Z,0
2018-01-21T05:37:30.529Z,0
2018-01-21T05:38:11.098Z,0
2018-01-21T05:38:51.557Z,0
2018-01-21T05:39:32.121Z,0
2018-01-21T05:40:12.631Z,0
2018-01-21T05:40:53.165Z,0
2018-01-21T05:41:33.731Z,0
2018-01-21T05:42:14.439Z,0
2018-01-21T05:42:54.959Z,0
2018-01-21T05:43:35.473Z,0
2018-01-21T05:44:16.020Z,0
2018-01-21T05:44:56.522Z,0
2018-01-21T05:45:37.087Z,0
2018-01-21T05:46:17.601Z,0
2018-01-21T05:46:58.188Z,0
2018-01-21T05:47:38.741Z,0
2018-01-21T05:48:19.252Z,0
2018-01-21T05:48:59.773Z,0
2018-01-21T05:49:40.284Z,0
2018-01-21T05:50:20.839Z,0
2018-01-21T05:51:01.362Z,0
2018-01-21T05:51:41.912Z,0
2018-01-21T05:52:22.477Z,0
2018-01-21T05:53:03.025Z,0
2018-01-21T05:53:43.551Z,0
2018-01-21T05:54:24.037Z,0
2018-01-21T05:55:04.598Z,0
2018-01-21T05:55:45.300Z,0
2018-01-21T05:56:25.840Z,0
2018-01-21T05:57:06.412Z,0
2018-01-21T05:57:46.900Z,0
2018-01-21T05:58:27.451Z,0
2018-01-21T05:59:07.941Z,0
2018-01-21T05:59:48.567Z,0
2018-01-21T06:00:29.057Z,0
2018-01-21T06:01:09.587Z,0
2018-01-21T06:01:50.153Z,0
2018-01-21T06:02:30.697Z,0
2018-01-21T06:03:11.243Z,0
2018-01-21T06:03:51.736Z,0
2018-01-21T06:04:32.281Z,0
2018-01-21T06:05:12.843Z,0
2018-01-21T06:05:53.355Z,0
2018-01-21T06:06:33.890Z,0
2018-01-21T06:07:14.424Z,0
2018-01-21T06:07:54.994Z,0
2018-01-21T06:08:35.510Z,0
2018-01-21T06:09:16.028Z,0
2018-01-21T06:09:56.538Z,0
2018-01-21T06:10:37.091Z,0
2018-01-21T06:11:17.693Z,0
2018-01-21T06:11:58.170Z,0
2018-01-21T06:12:38.702Z,0
2018-01-21T06:13:19.272Z,0
2018-01-21T06:13:59.855Z,0
2018-01-21T06:14:40.366Z,0
2018-01-21T06:15:20.956Z,0
2018-01-21T06:16:01.510Z,0
2018-01-21T06:16:42.037Z,0
2018-01-21T06:17:22.559Z,0
2018-01-21T06:18:03.078Z,0
2018-01-21T06:18:43.665Z,0
2018-01-21T06:19:24.184Z,0
2018-01-21T06:20:04.721Z,0
2018-01-21T06:20:45.251Z,0
2018-01-21T06:21:25.779Z,0
2018-01-21T06:22:06.309Z,0
2018-01-21T06:22:46.817Z,0
2018-01-21T06:23:27.345Z,0
2018-01-21T06:24:07.923Z,0
2018-01-21T06:24:48.436Z,0
2018-01-21T06:25:29.005Z,0
2018-01-21T06:26:09.484Z,0
2018-01-21T06:26:50.051Z,0
2018-01-21T06:27:30.581Z,0
2018-01-21T06:28:11.137Z,0
2018-01-21T06:28:51.675Z,0
2018-01-21T06:29:32.227Z,0
2018-01-21T06:30:12.812Z,0
2018-01-21T06:30:53.409Z,0
2018-01-21T06:31:33.898Z,0
2018-01-21T06:32:14.447Z,0
2018-01-21T06:32:54.950Z,0
2018-01-21T06:33:35.487Z,0
2018-01-21T06:34:16.102Z,0
2018-01-21T06:34:56.641Z,0
2018-01-21T06:35:37.187Z,0
2018-01-21T06:36:17.756Z,0
2018-01-21T06:36:58.291Z,0
2018-01-21T06:37:38.819Z,0
2018-01-21T06:38:19.342Z,0
2018-01-21T06:38:59.887Z,0
2018-01-21T06:39:40.392Z,0
2018-01-21T06:40:21.662Z,0
2018-01-21T06:41:01.545Z,4
2018-01-21T06:41:42.092Z,4
2018-01-21T06:42:22.583Z,4
2018-01-21T06:43:03.143Z,0
2018-01-21T06:43:43.703Z,0
2018-01-21T06:44:24.157Z,4
2018-01-21T06:45:04.772Z,4
2018-01-21T06:45:45.328Z,4
2018-01-21T06:46:25.869Z,4
2018-01-21T06:47:06.419Z,4
2018-01-21T06:47:46.914Z,4
2018-01-21T06:48:27.477Z,4
2018-01-21T06:49:08.019Z,4
2018-01-21T06:49:48.575Z,8
2018-01-21T06:50:29.202Z,8
2018-01-21T06:51:09.745Z,8
2018-01-21T06:51:50.264Z,8
2018-01-21T06:52:30.759Z,12
2018-01-21T06:53:11.378Z,8
2018-01-21T06:53:51.879Z,12
2018-01-21T06:54:32.465Z,16
2018-01-21T06:55:12.962Z,16
2018-01-21T06:55:53.501Z,20
2018-01-21T06:56:34.021Z,24
2018-01-21T06:57:14.608Z,24
2018-01-21T06:57:55.073Z,24
2018-01-21T06:58:35.622Z,24
2018-01-21T06:59:16.170Z,28
2018-01-21T06:59:56.716Z,24
2018-01-21T07:00:37.278Z,24
2018-01-21T07:01:17.817Z,28
2018-01-21T07:01:58.358Z,32
2018-01-21T07:02:38.949Z,32
2018-01-21T07:03:19.465Z,36
2018-01-21T07:04:00.001Z,40
2018-01-21T07:04:40.525Z,44
2018-01-21T07:05:21.665Z,52
2018-01-21T07:06:01.625Z,56
2018-01-21T07:06:42.214Z,60
2018-01-21T07:07:22.687Z,68
2018-01-21T07:08:03.276Z,72
2018-01-21T07:08:43.859Z,80
2018-01-21T07:09:24.407Z,84
2018-01-21T07:10:04.999Z,88
2018-01-21T07:10:45.538Z,96
2018-01-21T07:11:26.085Z,100
2018-01-21T07:12:06.638Z,104
2018-01-21T07:12:47.173Z,116
2018-01-21T07:13:27.719Z,124
2018-01-21T07:14:08.272Z,128
2018-01-21T07:14:48.760Z,132
2018-01-21T07:15:33.068Z,132
2018-01-21T07:16:09.874Z,132
2018-01-21T07:16:50.523Z,136
2018-01-21T07:17:31.006Z,136
2018-01-21T07:18:13.795Z,144
2018-01-21T07:18:54.222Z,144
2018-01-21T07:19:34.731Z,144
2018-01-21T07:20:15.230Z,140
2018-01-21T07:20:59.342Z,140
2018-01-21T07:21:39.931Z,136
2018-01-21T07:22:20.547Z,128
2018-01-21T07:23:01.188Z,124
2018-01-21T07:23:41.699Z,128
2018-01-21T07:24:22.200Z,132
2018-01-21T07:25:02.792Z,136
2018-01-21T07:25:43.313Z,148
2018-01-21T07:26:23.863Z,164
2018-01-21T07:27:04.370Z,180
2018-01-21T07:27:44.967Z,196
2018-01-21T07:28:25.544Z,216
2018-01-21T07:29:06.091Z,240
2018-01-21T07:29:47.295Z,260
2018-01-21T07:30:27.487Z,280
2018-01-21T07:31:08.095Z,292
2018-01-21T07:31:48.588Z,320
2018-01-21T07:32:29.084Z,352
2018-01-21T07:33:09.702Z,384
2018-01-21T07:33:50.215Z,424
2018-01-21T07:34:31.143Z,468
2018-01-21T07:35:11.731Z,492
2018-01-21T07:35:52.322Z,496
2018-01-21T07:36:32.813Z,516
2018-01-21T07:37:13.282Z,520
2018-01-21T07:37:53.796Z,516
2018-01-21T07:38:34.344Z,528
2018-01-21T07:39:14.865Z,536
2018-01-21T07:39:55.349Z,548
2018-01-21T07:40:35.890Z,556
2018-01-21T07:41:16.432Z,564
2018-01-21T07:41:57.724Z,580
2018-01-21T07:42:38.380Z,584
2018-01-21T07:43:18.893Z,596
2018-01-21T07:43:59.374Z,608
2018-01-21T07:44:39.894Z,620
2018-01-21T07:45:20.537Z,640
2018-01-21T07:46:01.025Z,660
2018-01-21T07:46:41.521Z,692
2018-01-21T07:47:22.165Z,724
2018-01-21T07:48:02.672Z,764
2018-01-21T07:48:43.227Z,780
2018-01-21T07:49:23.699Z,752
2018-01-21T07:50:04.308Z,708
2018-01-21T07:50:44.801Z,684
2018-01-21T07:51:25.402Z,672
2018-01-21T07:52:05.908Z,668
2018-01-21T07:52:46.410Z,668
2018-01-21T07:53:26.962Z,652
2018-01-21T07:54:07.522Z,660
2018-01-21T07:54:48.088Z,676
2018-01-21T07:55:30.220Z,704
2018-01-21T07:56:10.754Z,756
2018-01-21T07:56:51.313Z,808
2018-01-21T07:57:31.807Z,816
2018-01-21T07:58:12.339Z,812
2018-01-21T07:58:52.882Z,860
2018-01-21T07:59:33.467Z,976
2018-01-21T08:00:13.946Z,1024
2018-01-21T08:00:54.464Z,1008
2018-01-21T08:01:35.086Z,960
2018-01-21T08:02:15.613Z,884
2018-01-21T08:02:56.146Z,844
2018-01-21T08:03:36.731Z,776
2018-01-21T08:04:17.269Z,764
2018-01-21T08:04:57.804Z,756
2018-01-21T08:05:38.352Z,760
2018-01-21T08:06:18.943Z,796
2018-01-21T08:06:59.475Z,800
2018-01-21T08:07:40.088Z,792
2018-01-21T08:08:20.582Z,776
2018-01-21T08:09:01.137Z,780
2018-01-21T08:09:41.676Z,796
2018-01-21T08:10:22.271Z,812
2018-01-21T08:11:02.773Z,848
2018-01-21T08:11:43.325Z,844
2018-01-21T08:12:23.856Z,816
2018-01-21T08:13:04.568Z,828
2018-01-21T08:13:45.104Z,836
2018-01-21T08:14:25.725Z,908
2018-01-21T08:15:06.283Z,972
2018-01-21T08:15:46.960Z,980
2018-01-21T08:16:27.513Z,988
2018-01-21T08:17:08.025Z,1012
2018-01-21T08:17:48.565Z,1044
2018-01-21T08:18:29.097Z,1116
2018-01-21T08:19:09.831Z,1224
2018-01-21T08:19:50.363Z,1368
2018-01-21T08:20:30.923Z,1468
2018-01-21T08:21:11.657Z,1440
2018-01-21T08:21:52.176Z,1412
2018-01-21T08:22:32.724Z,1392
2018-01-21T08:23:13.383Z,1336
2018-01-21T08:23:53.862Z,1376
2018-01-21T08:24:34.435Z,1392
2018-01-21T08:25:15.038Z,1432
2018-01-21T08:25:55.570Z,1452
2018-01-21T08:26:36.084Z,1404
2018-01-21T08:27:16.639Z,1336
2018-01-21T08:27:57.352Z,1264
2018-01-21T08:28:38.350Z,1280
2018-01-21T08:29:18.897Z,1396
2018-01-21T08:29:59.466Z,1540
2018-01-21T08:30:40.082Z,1620
2018-01-21T08:31:20.570Z,1568
2018-01-21T08:32:01.183Z,1544
2018-01-21T08:32:41.703Z,1556
2018-01-21T08:33:22.238Z,1516
2018-01-21T08:34:02.783Z,1544
2018-01-21T08:34:43.369Z,1620
2018-01-21T08:35:23.941Z,1612
2018-01-21T08:36:04.470Z,1604
2018-01-21T08:36:45.006Z,1580
2018-01-21T08:37:25.549Z,1504
2018-01-21T08:38:06.040Z,1452
2018-01-21T08:38:46.608Z,1452
2018-01-21T08:39:27.196Z,1492
2018-01-21T08:40:07.713Z,1564
2018-01-21T08:40:48.324Z,1604
2018-01-21T08:41:28.891Z,1616
2018-01-21T08:42:09.410Z,1684
2018-01-21T08:42:49.913Z,1660
2018-01-21T08:43:30.443Z,1544
2018-01-21T08:44:13.021Z,1484
2018-01-21T08:44:53.230Z,1392
2018-01-21T08:45:33.790Z,1352
2018-01-21T08:46:14.329Z,1308
2018-01-21T08:46:54.849Z,1276
2018-01-21T08:47:35.480Z,1236
2018-01-21T08:48:16.099Z,1224
2018-01-21T08:48:56.570Z,1212
2018-01-21T08:49:42.569Z,1196
2018-01-21T08:57:13.492Z,1328
2018-01-21T08:57:54.055Z,1344
2018-01-21T08:58:34.631Z,1364
2018-01-21T08:59:15.189Z,1380
2018-01-21T08:59:55.798Z,1392
2018-01-21T09:00:36.261Z,1396
2018-01-21T09:01:16.856Z,1404
2018-01-21T09:01:57.429Z,1420
2018-01-21T09:02:38.010Z,1416
2018-01-21T09:03:18.555Z,1396
2018-01-21T09:03:59.150Z,1380
2018-01-21T09:04:39.702Z,1364
2018-01-21T09:05:20.242Z,1340
2018-01-21T09:06:00.770Z,1312
2018-01-21T09:06:41.363Z,1288
2018-01-21T09:07:21.980Z,1284
2018-01-21T09:08:02.577Z,1288
2018-01-21T09:08:43.126Z,1292
2018-01-21T09:09:23.733Z,1312
2018-01-21T09:10:04.451Z,1332
2018-01-21T09:10:44.996Z,1348
2018-01-21T09:11:25.522Z,1368
2018-01-21T09:12:06.100Z,1420
2018-01-21T09:12:46.658Z,1488
2018-01-21T09:13:29.088Z,1544
2018-01-21T09:14:09.589Z,1552
2018-01-21T09:14:50.184Z,1544
2018-01-21T09:15:30.698Z,1520
2018-01-21T09:16:11.312Z,1520
2018-01-21T09:16:51.894Z,1552
2018-01-21T09:17:32.487Z,1616
2018-01-21T09:18:13.005Z,1688
2018-01-21T09:18:53.561Z,1740
2018-01-21T09:19:34.183Z,1728
2018-01-21T09:20:14.776Z,1676
2018-01-21T09:20:55.307Z,1592
2018-01-21T09:21:35.936Z,1524
2018-01-21T09:22:16.411Z,1484
2018-01-21T09:22:57.036Z,1524
2018-01-21T09:23:37.687Z,1600
2018-01-21T09:24:21.096Z,1616
2018-01-21T09:25:01.658Z,1664
2018-01-21T09:25:42.279Z,1660
2018-01-21T09:26:22.928Z,1620
2018-01-21T09:27:03.476Z,1564
2018-01-21T09:27:44.076Z,1544
2018-01-21T09:28:24.603Z,1572
2018-01-21T09:29:05.207Z,1652
2018-01-21T09:29:45.823Z,1764
2018-01-21T09:30:26.375Z,1912
2018-01-21T09:31:06.927Z,2008
2018-01-21T09:31:47.484Z,2200
2018-01-21T09:32:28.057Z,2244
2018-01-21T09:33:08.565Z,2080
2018-01-21T09:33:49.164Z,2000
2018-01-21T09:34:29.764Z,1964
2018-01-21T09:35:10.354Z,1912
2018-01-21T09:35:50.921Z,1828
2018-01-21T09:36:31.527Z,1756
2018-01-21T09:37:12.100Z,1672
2018-01-21T09:37:52.776Z,1608
2018-01-21T09:38:33.347Z,1576
2018-01-21T09:39:13.957Z,1572
2018-01-21T09:39:54.586Z,1576
2018-01-21T09:40:35.173Z,1588
2018-01-21T09:41:15.773Z,1588
2018-01-21T09:41:56.401Z,1596
2018-01-21T09:42:37.003Z,1580
2018-01-21T09:43:17.591Z,1524
2018-01-21T09:43:58.160Z,1456
2018-01-21T09:44:38.725Z,1408
2018-01-21T09:45:19.232Z,1392
2018-01-21T09:45:59.814Z,1368
2018-01-21T09:46:40.401Z,1356
2018-01-21T09:47:20.976Z,1340
2018-01-21T09:48:01.603Z,1324
2018-01-21T09:48:42.173Z,1276
2018-01-21T09:49:22.827Z,1232
2018-01-21T09:50:03.487Z,1208
2018-01-21T09:50:44.079Z,1196
2018-01-21T09:51:24.693Z,1192
2018-01-21T09:52:05.222Z,1172
2018-01-21T09:52:45.894Z,1128
2018-01-21T09:53:26.461Z,1068